sensor_id;sensor_type;location;lat;lon;timestamp;pressure;altitude;pressure_sealevel;temperature;humidity
59419;BME280;45224;50.904;6.038;2023-04-08T00:00:16;100393.06;;;8.67;90.57
59419;BME280;45224;50.904;6.038;2023-04-08T00:01:46;100396.50;;;8.66;90.42
59419;BME280;45224;50.904;6.038;2023-04-08T00:03:17;100400.78;;;8.67;90.43
59419;BME280;45224;50.904;6.038;2023-04-08T00:04:47;100399.91;;;8.65;90.74
59419;BME280;45224;50.904;6.038;2023-04-08T00:06:18;100402.44;;;8.62;91.11
59419;BME280;45224;50.904;6.038;2023-04-08T00:07:48;100404.94;;;8.58;91.01
59419;BME280;45224;50.904;6.038;2023-04-08T00:09:19;100410.16;;;8.62;90.90
59419;BME280;45224;50.904;6.038;2023-04-08T00:10:49;100402.50;;;8.66;90.60
59419;BME280;45224;50.904;6.038;2023-04-08T00:12:20;100394.75;;;8.65;90.23
59419;BME280;45224;50.904;6.038;2023-04-08T00:13:50;100394.75;;;8.65;90.36
59419;BME280;45224;50.904;6.038;2023-04-08T00:15:21;100401.59;;;8.63;91.28
59419;BME280;45224;50.904;6.038;2023-04-08T00:16:52;100391.22;;;8.59;90.99
59419;BME280;45224;50.904;6.038;2023-04-08T00:18:22;100398.09;;;8.61;91.22
59419;BME280;45224;50.904;6.038;2023-04-08T00:19:52;100407.63;;;8.63;91.01
59419;BME280;45224;50.904;6.038;2023-04-08T00:21:24;100401.59;;;8.63;90.69
59419;BME280;45224;50.904;6.038;2023-04-08T00:22:56;100403.25;;;8.61;91.32
59419;BME280;45224;50.904;6.038;2023-04-08T00:24:26;100404.00;;;8.53;92.04
59419;BME280;45224;50.904;6.038;2023-04-08T00:25:57;100411.00;;;8.61;91.02
59419;BME280;45224;50.904;6.038;2023-04-08T00:27:27;100401.44;;;8.53;91.80
59419;BME280;45224;50.904;6.038;2023-04-08T00:28:57;100403.19;;;8.54;91.90
59419;BME280;45224;50.904;6.038;2023-04-08T00:30:28;100400.59;;;8.54;91.92
59419;BME280;45224;50.904;6.038;2023-04-08T00:31:59;100404.00;;;8.53;91.61
59419;BME280;45224;50.904;6.038;2023-04-08T00:33:30;100406.59;;;8.53;92.13
59419;BME280;45224;50.904;6.038;2023-04-08T00:35:01;100403.94;;;8.50;92.48
59419;BME280;45224;50.904;6.038;2023-04-08T00:36:32;100410.69;;;8.44;92.88
59419;BME280;45224;50.904;6.038;2023-04-08T00:38:02;100401.25;;;8.44;92.61
59419;BME280;45224;50.904;6.038;2023-04-08T00:39:37;100403.91;;;8.49;92.36
59419;BME280;45224;50.904;6.038;2023-04-08T00:41:07;100408.16;;;8.45;92.52
59419;BME280;45224;50.904;6.038;2023-04-08T00:42:37;100416.53;;;8.35;94.30
59419;BME280;45224;50.904;6.038;2023-04-08T00:44:08;100409.72;;;8.38;93.46
59419;BME280;45224;50.904;6.038;2023-04-08T00:45:39;100413.19;;;8.40;93.16
59419;BME280;45224;50.904;6.038;2023-04-08T00:47:12;100414.91;;;8.40;93.73
59419;BME280;45224;50.904;6.038;2023-04-08T00:48:43;100407.94;;;8.36;93.89
59419;BME280;45224;50.904;6.038;2023-04-08T00:50:14;100414.91;;;8.40;93.36
59419;BME280;45224;50.904;6.038;2023-04-08T00:51:45;100404.41;;;8.31;93.77
59419;BME280;45224;50.904;6.038;2023-04-08T00:53:18;100407.94;;;8.36;93.59
59419;BME280;45224;50.904;6.038;2023-04-08T00:54:49;100412.31;;;8.40;93.48
59419;BME280;45224;50.904;6.038;2023-04-08T00:56:20;100419.19;;;8.41;93.02
59419;BME280;45224;50.904;6.038;2023-04-08T00:57:52;100411.47;;;8.41;93.02
59419;BME280;45224;50.904;6.038;2023-04-08T00:59:22;100410.56;;;8.39;93.20
59419;BME280;45224;50.904;6.038;2023-04-08T01:01:09;100411.38;;;8.35;94.23
59419;BME280;45224;50.904;6.038;2023-04-08T01:02:58;100413.09;;;8.36;93.85
59419;BME280;45224;50.904;6.038;2023-04-08T01:06:12;100420.06;;;8.40;93.55
59419;BME280;45224;50.904;6.038;2023-04-08T01:07:49;100416.59;;;8.39;93.64
59419;BME280;45224;50.904;6.038;2023-04-08T01:09:22;100410.53;;;8.37;93.21
59419;BME280;45224;50.904;6.038;2023-04-08T01:11:00;100408.88;;;8.41;92.91
59419;BME280;45224;50.904;6.038;2023-04-08T01:12:31;100416.63;;;8.41;93.23
59419;BME280;45224;50.904;6.038;2023-04-08T01:14:04;100416.72;;;8.44;93.03
59419;BME280;45224;50.904;6.038;2023-04-08T01:15:36;100420.81;;;8.36;94.10
59419;BME280;45224;50.904;6.038;2023-04-08T01:17:08;100413.94;;;8.35;93.98
59419;BME280;45224;50.904;6.038;2023-04-08T01:18:40;100410.53;;;8.36;94.15
59419;BME280;45224;50.904;6.038;2023-04-08T01:20:12;100407.94;;;8.36;93.79
59419;BME280;45224;50.904;6.038;2023-04-08T01:21:43;100408.78;;;8.36;93.78
59419;BME280;45224;50.904;6.038;2023-04-08T01:23:29;100414.84;;;8.37;93.63
59419;BME280;45224;50.904;6.038;2023-04-08T01:25:05;100409.75;;;8.40;93.67
59419;BME280;45224;50.904;6.038;2023-04-08T01:26:39;100415.78;;;8.42;92.97
59419;BME280;45224;50.904;6.038;2023-04-08T01:28:12;100409.75;;;8.40;93.05
59419;BME280;45224;50.904;6.038;2023-04-08T01:29:47;100412.25;;;8.37;93.64
59419;BME280;45224;50.904;6.038;2023-04-08T01:31:18;100416.63;;;8.41;93.51
59419;BME280;45224;50.904;6.038;2023-04-08T01:32:51;100413.16;;;8.39;93.49
59419;BME280;45224;50.904;6.038;2023-04-08T01:34:26;100409.75;;;8.40;93.43
59419;BME280;45224;50.904;6.038;2023-04-08T01:36:00;100410.63;;;8.42;93.68
59419;BME280;45224;50.904;6.038;2023-04-08T01:37:31;100418.38;;;8.42;93.93
59419;BME280;45224;50.904;6.038;2023-04-08T01:39:04;100410.56;;;8.39;93.86
59419;BME280;45224;50.904;6.038;2023-04-08T01:40:37;100409.72;;;8.38;93.57
59419;BME280;45224;50.904;6.038;2023-04-08T01:42:08;100415.84;;;8.44;93.35
59419;BME280;45224;50.904;6.038;2023-04-08T01:43:41;100415.84;;;8.44;93.47
59419;BME280;45224;50.904;6.038;2023-04-08T01:45:13;100418.47;;;8.45;93.18
59419;BME280;45224;50.904;6.038;2023-04-08T01:46:46;100413.31;;;8.45;93.13
59419;BME280;45224;50.904;6.038;2023-04-08T01:48:17;100420.22;;;8.46;93.14
59419;BME280;45224;50.904;6.038;2023-04-08T01:49:51;100416.72;;;8.44;93.52
59419;BME280;45224;50.904;6.038;2023-04-08T01:51:24;100415.84;;;8.44;93.33
59419;BME280;45224;50.904;6.038;2023-04-08T01:52:58;100413.16;;;8.39;94.28
59419;BME280;45224;50.904;6.038;2023-04-08T01:54:29;100420.16;;;8.43;93.60
59419;BME280;45224;50.904;6.038;2023-04-08T01:56:10;100412.41;;;8.43;93.33
59419;BME280;45224;50.904;6.038;2023-04-08T01:57:48;100416.63;;;8.41;93.96
59419;BME280;45224;50.904;6.038;2023-04-08T01:59:20;100415.78;;;8.42;93.64
59419;BME280;45224;50.904;6.038;2023-04-08T02:00:53;100422.72;;;8.43;93.43
59419;BME280;45224;50.904;6.038;2023-04-08T02:02:26;100423.63;;;8.45;93.43
59419;BME280;45224;50.904;6.038;2023-04-08T02:03:58;100420.06;;;8.40;93.69
59419;BME280;45224;50.904;6.038;2023-04-08T02:05:29;100420.84;;;8.37;93.72
59419;BME280;45224;50.904;6.038;2023-04-08T02:07:00;100420.88;;;8.39;93.81
59419;BME280;45224;50.904;6.038;2023-04-08T02:08:32;100421.56;;;8.29;94.87
59419;BME280;45224;50.904;6.038;2023-04-08T02:10:03;100419.03;;;8.32;94.43
59419;BME280;45224;50.904;6.038;2023-04-08T02:11:34;100421.69;;;8.35;94.08
59419;BME280;45224;50.904;6.038;2023-04-08T02:13:05;100426.84;;;8.35;94.51
59419;BME280;45224;50.904;6.038;2023-04-08T02:14:35;100425.91;;;8.33;94.51
59419;BME280;45224;50.904;6.038;2023-04-08T02:16:15;100426.03;;;8.39;93.74
59419;BME280;45224;50.904;6.038;2023-04-08T02:17:54;100423.41;;;8.36;94.06
59419;BME280;45224;50.904;6.038;2023-04-08T02:19:30;100426.94;;;8.41;94.17
59419;BME280;45224;50.904;6.038;2023-04-08T02:21:14;100425.19;;;8.38;94.40
59419;BME280;45224;50.904;6.038;2023-04-08T02:24:33;100424.91;;;8.25;95.14
59419;BME280;45224;50.904;6.038;2023-04-08T02:26:12;100422.34;;;8.26;95.20
59419;BME280;45224;50.904;6.038;2023-04-08T02:27:44;100427.53;;;8.28;94.74
59419;BME280;45224;50.904;6.038;2023-04-08T02:29:18;100429.34;;;8.32;94.67
59419;BME280;45224;50.904;6.038;2023-04-08T02:30:52;100431.94;;;8.32;94.41
59419;BME280;45224;50.904;6.038;2023-04-08T02:32:24;100425.84;;;8.30;95.20
59419;BME280;45224;50.904;6.038;2023-04-08T02:33:56;100430.91;;;8.23;95.88
59419;BME280;45224;50.904;6.038;2023-04-08T02:35:27;100424.94;;;8.26;95.66
59419;BME280;45224;50.904;6.038;2023-04-08T02:36:58;100427.50;;;8.26;95.21
59419;BME280;45224;50.904;6.038;2023-04-08T02:38:28;100432.75;;;8.31;94.87
59419;BME280;45224;50.904;6.038;2023-04-08T02:40:00;100432.81;;;8.34;94.61
59419;BME280;45224;50.904;6.038;2023-04-08T02:41:30;100431.94;;;8.32;94.67
59419;BME280;45224;50.904;6.038;2023-04-08T02:43:01;100436.22;;;8.33;94.79
59419;BME280;45224;50.904;6.038;2023-04-08T02:44:31;100430.22;;;8.32;94.49
59419;BME280;45224;50.904;6.038;2023-04-08T02:46:05;100434.56;;;8.36;94.18
59419;BME280;45224;50.904;6.038;2023-04-08T02:47:36;100435.31;;;8.29;94.67
59419;BME280;45224;50.904;6.038;2023-04-08T02:49:06;100426.78;;;8.32;94.88
59419;BME280;45224;50.904;6.038;2023-04-08T02:50:37;100426.66;;;8.26;95.53
59419;BME280;45224;50.904;6.038;2023-04-08T02:52:09;100436.13;;;8.28;95.00
59419;BME280;45224;50.904;6.038;2023-04-08T02:53:39;100430.19;;;8.31;94.75
59419;BME280;45224;50.904;6.038;2023-04-08T02:55:10;100442.28;;;8.35;94.26
59419;BME280;45224;50.904;6.038;2023-04-08T02:56:41;100431.94;;;8.32;94.43
59419;BME280;45224;50.904;6.038;2023-04-08T02:58:11;100433.66;;;8.33;94.40
59419;BME280;45224;50.904;6.038;2023-04-08T02:59:42;100438.81;;;8.34;94.61
59419;BME280;45224;50.904;6.038;2023-04-08T03:01:12;100436.31;;;8.37;94.25
59419;BME280;45224;50.904;6.038;2023-04-08T03:02:42;100426.78;;;8.32;94.07
59419;BME280;45224;50.904;6.038;2023-04-08T03:04:13;100441.50;;;8.39;94.18
59419;BME280;45224;50.904;6.038;2023-04-08T03:05:43;100438.00;;;8.35;94.28
59419;BME280;45224;50.904;6.038;2023-04-08T03:07:14;100444.06;;;8.39;94.26
59419;BME280;45224;50.904;6.038;2023-04-08T03:08:44;100448.41;;;8.40;94.19
59419;BME280;45224;50.904;6.038;2023-04-08T03:10:15;100437.22;;;8.41;93.88
59419;BME280;45224;50.904;6.038;2023-04-08T03:11:45;100444.97;;;8.41;93.81
59419;BME280;45224;50.904;6.038;2023-04-08T03:13:21;100436.16;;;8.30;94.37
59419;BME280;45224;50.904;6.038;2023-04-08T03:14:52;100441.50;;;8.39;94.28
59419;BME280;45224;50.904;6.038;2023-04-08T03:16:23;100441.53;;;8.40;94.40
59419;BME280;45224;50.904;6.038;2023-04-08T03:17:54;100445.69;;;8.34;95.16
59419;BME280;45224;50.904;6.038;2023-04-08T03:19:24;100446.56;;;8.34;94.98
59419;BME280;45224;50.904;6.038;2023-04-08T03:20:54;100440.59;;;8.37;94.43
59419;BME280;45224;50.904;6.038;2023-04-08T03:22:25;100443.94;;;8.33;94.67
59419;BME280;45224;50.904;6.038;2023-04-08T03:23:56;100444.88;;;8.35;94.82
59419;BME280;45224;50.904;6.038;2023-04-08T03:25:26;100442.97;;;8.26;95.51
59419;BME280;45224;50.904;6.038;2023-04-08T03:26:58;100447.31;;;8.29;95.19
59419;BME280;45224;50.904;6.038;2023-04-08T03:28:28;100442.22;;;8.32;94.70
59419;BME280;45224;50.904;6.038;2023-04-08T03:29:59;100444.84;;;8.33;95.09
59419;BME280;45224;50.904;6.038;2023-04-08T03:31:30;100442.28;;;8.35;94.42
59419;BME280;45224;50.904;6.038;2023-04-08T03:33:00;100437.06;;;8.32;94.52
59419;BME280;45224;50.904;6.038;2023-04-08T03:34:33;100439.63;;;8.30;94.50
59419;BME280;45224;50.904;6.038;2023-04-08T03:36:05;100448.31;;;8.35;94.66
59419;BME280;45224;50.904;6.038;2023-04-08T03:37:35;100438.78;;;8.33;94.77
59419;BME280;45224;50.904;6.038;2023-04-08T03:39:06;100441.41;;;8.34;95.07
59419;BME280;45224;50.904;6.038;2023-04-08T03:40:36;100444.00;;;8.36;94.71
59419;BME280;45224;50.904;6.038;2023-04-08T03:42:07;100441.47;;;8.37;94.56
59419;BME280;45224;50.904;6.038;2023-04-08T03:43:37;100440.59;;;8.37;94.51
59419;BME280;45224;50.904;6.038;2023-04-08T03:45:08;100444.00;;;8.36;94.70
59419;BME280;45224;50.904;6.038;2023-04-08T03:46:38;100443.09;;;8.32;95.27
59419;BME280;45224;50.904;6.038;2023-04-08T03:48:09;100444.81;;;8.32;94.65
59419;BME280;45224;50.904;6.038;2023-04-08T03:49:39;100444.78;;;8.30;94.65
59419;BME280;45224;50.904;6.038;2023-04-08T03:51:10;100449.09;;;8.33;94.65
59419;BME280;45224;50.904;6.038;2023-04-08T03:52:40;100450.03;;;8.35;94.73
59419;BME280;45224;50.904;6.038;2023-04-08T03:54:11;100450.03;;;8.35;94.29
59419;BME280;45224;50.904;6.038;2023-04-08T03:55:41;100446.47;;;8.30;94.86
59419;BME280;45224;50.904;6.038;2023-04-08T03:57:12;100438.78;;;8.33;94.69
59419;BME280;45224;50.904;6.038;2023-04-08T03:58:42;100434.41;;;8.27;94.92
59419;BME280;45224;50.904;6.038;2023-04-08T04:00:13;100440.47;;;8.31;94.85
59419;BME280;45224;50.904;6.038;2023-04-08T04:01:44;100445.63;;;8.31;94.96
59419;BME280;45224;50.904;6.038;2023-04-08T04:03:14;100449.09;;;8.33;94.62
59419;BME280;45224;50.904;6.038;2023-04-08T04:04:45;100443.03;;;8.29;94.72
59419;BME280;45224;50.904;6.038;2023-04-08T04:06:15;100443.88;;;8.30;94.81
59419;BME280;45224;50.904;6.038;2023-04-08T04:07:46;100443.78;;;8.23;95.33
59419;BME280;45224;50.904;6.038;2023-04-08T04:09:16;100440.34;;;8.25;94.77
59419;BME280;45224;50.904;6.038;2023-04-08T04:10:47;100441.22;;;8.25;95.34
59419;BME280;45224;50.904;6.038;2023-04-08T04:12:18;100450.66;;;8.25;95.13
59419;BME280;45224;50.904;6.038;2023-04-08T04:13:48;100445.44;;;8.21;94.99
59419;BME280;45224;50.904;6.038;2023-04-08T04:15:19;100443.75;;;8.22;95.42
59419;BME280;45224;50.904;6.038;2023-04-08T04:16:49;100440.28;;;8.21;95.14
59419;BME280;45224;50.904;6.038;2023-04-08T04:18:20;100448.97;;;8.27;94.92
59419;BME280;45224;50.904;6.038;2023-04-08T04:19:50;100438.56;;;8.20;95.08
59419;BME280;45224;50.904;6.038;2023-04-08T04:21:21;100453.22;;;8.23;95.67
59419;BME280;45224;50.904;6.038;2023-04-08T04:22:52;100446.13;;;8.13;96.20
59419;BME280;45224;50.904;6.038;2023-04-08T04:24:22;100450.47;;;8.15;96.17
59419;BME280;45224;50.904;6.038;2023-04-08T04:25:53;100457.44;;;8.19;95.89
59419;BME280;45224;50.904;6.038;2023-04-08T04:27:23;100456.47;;;8.14;95.90
59419;BME280;45224;50.904;6.038;2023-04-08T04:28:54;100453.97;;;8.17;95.91
59419;BME280;45224;50.904;6.038;2023-04-08T04:30:24;100452.16;;;8.13;96.23
59419;BME280;45224;50.904;6.038;2023-04-08T04:31:55;100457.38;;;8.16;96.14
59419;BME280;45224;50.904;6.038;2023-04-08T04:33:25;100451.41;;;8.19;96.00
59419;BME280;45224;50.904;6.038;2023-04-08T04:34:56;100452.16;;;8.13;96.62
59419;BME280;45224;50.904;6.038;2023-04-08T04:36:26;100458.25;;;8.18;96.03
59419;BME280;45224;50.904;6.038;2023-04-08T04:37:57;100456.41;;;8.11;97.15
59419;BME280;45224;50.904;6.038;2023-04-08T04:39:27;100453.00;;;8.12;96.61
59419;BME280;45224;50.904;6.038;2023-04-08T04:40:58;100452.16;;;8.13;96.39
59419;BME280;45224;50.904;6.038;2023-04-08T04:42:28;100460.84;;;8.18;96.11
59419;BME280;45224;50.904;6.038;2023-04-08T04:43:59;100461.66;;;8.16;96.64
59419;BME280;45224;50.904;6.038;2023-04-08T04:45:29;100465.91;;;8.15;96.72
59419;BME280;45224;50.904;6.038;2023-04-08T04:47:00;100459.81;;;8.10;96.83
59419;BME280;45224;50.904;6.038;2023-04-08T04:48:32;100464.19;;;8.14;96.55
59419;BME280;45224;50.904;6.038;2023-04-08T04:50:02;100465.97;;;8.18;96.27
59419;BME280;45224;50.904;6.038;2023-04-08T04:51:33;100465.03;;;8.13;96.55
59419;BME280;45224;50.904;6.038;2023-04-08T04:53:03;100469.44;;;8.19;96.68
59419;BME280;45224;50.904;6.038;2023-04-08T04:54:34;100475.38;;;8.15;96.97
59419;BME280;45224;50.904;6.038;2023-04-08T04:56:05;100464.94;;;8.09;97.64
59419;BME280;45224;50.904;6.038;2023-04-08T04:57:35;100478.75;;;8.14;97.43
59419;BME280;45224;50.904;6.038;2023-04-08T04:59:06;100472.81;;;8.16;96.72
59419;BME280;45224;50.904;6.038;2023-04-08T05:00:37;100472.75;;;8.13;96.90
59419;BME280;45224;50.904;6.038;2023-04-08T05:02:08;100473.66;;;8.15;96.79
59419;BME280;45224;50.904;6.038;2023-04-08T05:03:38;100474.56;;;8.17;96.68
59419;BME280;45224;50.904;6.038;2023-04-08T05:05:09;100476.34;;;8.21;96.33
59419;BME280;45224;50.904;6.038;2023-04-08T05:06:39;100478.06;;;8.21;96.64
59419;BME280;45224;50.904;6.038;2023-04-08T05:08:10;100476.34;;;8.21;96.78
59419;BME280;45224;50.904;6.038;2023-04-08T05:09:41;100482.34;;;8.19;96.97
59419;BME280;45224;50.904;6.038;2023-04-08T05:11:11;100482.41;;;8.22;96.76
59419;BME280;45224;50.904;6.038;2023-04-08T05:12:41;100477.16;;;8.17;96.49
59419;BME280;45224;50.904;6.038;2023-04-08T05:14:12;100486.66;;;8.21;96.70
59419;BME280;45224;50.904;6.038;2023-04-08T05:15:42;100496.09;;;8.21;96.90
59419;BME280;45224;50.904;6.038;2023-04-08T05:17:14;100490.13;;;8.22;97.08
59419;BME280;45224;50.904;6.038;2023-04-08T05:18:45;100483.94;;;8.15;97.77
59419;BME280;45224;50.904;6.038;2023-04-08T05:20:15;100496.84;;;8.15;97.39
59419;BME280;45224;50.904;6.038;2023-04-08T05:21:46;100493.44;;;8.16;97.45
59419;BME280;45224;50.904;6.038;2023-04-08T05:23:16;100503.88;;;8.22;97.29
59419;BME280;45224;50.904;6.038;2023-04-08T05:24:47;100491.81;;;8.21;97.10
59419;BME280;45224;50.904;6.038;2023-04-08T05:26:21;100499.22;;;8.06;98.51
59419;BME280;45224;50.904;6.038;2023-04-08T05:27:51;100508.88;;;8.16;98.09
59419;BME280;45224;50.904;6.038;2023-04-08T05:29:22;100495.97;;;8.15;98.14
59419;BME280;45224;50.904;6.038;2023-04-08T05:30:52;100503.84;;;8.21;97.32
59419;BME280;45224;50.904;6.038;2023-04-08T05:32:23;100503.88;;;8.22;97.30
59419;BME280;45224;50.904;6.038;2023-04-08T05:33:54;100496.00;;;8.16;97.11
59419;BME280;45224;50.904;6.038;2023-04-08T05:35:24;100508.09;;;8.19;97.96
59419;BME280;45224;50.904;6.038;2023-04-08T05:36:55;100506.34;;;8.18;98.17
59419;BME280;45224;50.904;6.038;2023-04-08T05:38:25;100504.53;;;8.14;98.79
59419;BME280;45224;50.904;6.038;2023-04-08T05:39:56;100510.50;;;8.11;98.72
59419;BME280;45224;50.904;6.038;2023-04-08T05:41:26;100514.03;;;8.16;98.60
59419;BME280;45224;50.904;6.038;2023-04-08T05:42:57;100503.66;;;8.13;98.36
59419;BME280;45224;50.904;6.038;2023-04-08T05:44:27;100510.63;;;8.17;98.77
59419;BME280;45224;50.904;6.038;2023-04-08T05:45:58;100506.03;;;8.04;99.75
59419;BME280;45224;50.904;6.038;2023-04-08T05:47:28;100510.50;;;8.11;99.18
59419;BME280;45224;50.904;6.038;2023-04-08T05:48:59;100517.13;;;8.00;100.00
59419;BME280;45224;50.904;6.038;2023-04-08T05:50:29;100504.13;;;7.95;100.00
59419;BME280;45224;50.904;6.038;2023-04-08T05:52:00;100515.44;;;8.02;100.00
59419;BME280;45224;50.904;6.038;2023-04-08T05:53:31;100516.41;;;8.07;100.00
59419;BME280;45224;50.904;6.038;2023-04-08T05:55:01;100519.00;;;8.09;99.85
59419;BME280;45224;50.904;6.038;2023-04-08T05:56:32;100521.63;;;8.10;99.90
59419;BME280;45224;50.904;6.038;2023-04-08T05:58:02;100525.94;;;8.11;99.91
59419;BME280;45224;50.904;6.038;2023-04-08T05:59:32;100513.75;;;8.04;100.00
59419;BME280;45224;50.904;6.038;2023-04-08T06:01:03;100532.00;;;8.13;100.00
59419;BME280;45224;50.904;6.038;2023-04-08T06:02:36;100520.03;;;8.17;99.99
59419;BME280;45224;50.904;6.038;2023-04-08T06:04:06;100522.59;;;8.15;99.69
59419;BME280;45224;50.904;6.038;2023-04-08T06:05:37;100521.88;;;8.21;99.86
59419;BME280;45224;50.904;6.038;2023-04-08T06:07:07;100521.88;;;8.21;99.51
59419;BME280;45224;50.904;6.038;2023-04-08T06:08:38;100527.94;;;8.25;99.67
59419;BME280;45224;50.904;6.038;2023-04-08T06:10:09;100531.25;;;8.17;100.00
59419;BME280;45224;50.904;6.038;2023-04-08T06:11:39;100536.38;;;8.17;100.00
59419;BME280;45224;50.904;6.038;2023-04-08T06:13:10;100525.16;;;8.15;100.00
59419;BME280;45224;50.904;6.038;2023-04-08T06:14:40;100529.63;;;8.22;100.00
59419;BME280;45224;50.904;6.038;2023-04-08T06:16:12;100529.59;;;8.21;100.00
59419;BME280;45224;50.904;6.038;2023-04-08T06:17:43;100540.84;;;8.26;100.00
59419;BME280;45224;50.904;6.038;2023-04-08T06:19:13;100538.31;;;8.28;100.00
59419;BME280;45224;50.904;6.038;2023-04-08T06:20:44;100538.19;;;8.21;100.00
59419;BME280;45224;50.904;6.038;2023-04-08T06:22:15;100540.84;;;8.26;100.00
59419;BME280;45224;50.904;6.038;2023-04-08T06:23:46;100546.88;;;8.27;100.00
59419;BME280;45224;50.904;6.038;2023-04-08T06:25:16;100545.13;;;8.24;100.00
59419;BME280;45224;50.904;6.038;2023-04-08T06:26:47;100539.09;;;8.25;100.00
59419;BME280;45224;50.904;6.038;2023-04-08T06:28:17;100557.19;;;8.27;100.00
59419;BME280;45224;50.904;6.038;2023-04-08T06:29:47;100553.06;;;8.33;100.00
59419;BME280;45224;50.904;6.038;2023-04-08T06:31:18;100557.19;;;8.27;100.00
59419;BME280;45224;50.904;6.038;2023-04-08T06:32:48;100558.78;;;8.21;100.00
59419;BME280;45224;50.904;6.038;2023-04-08T06:34:19;100551.06;;;8.21;100.00
59419;BME280;45224;50.904;6.038;2023-04-08T06:35:50;100555.38;;;8.22;100.00
59419;BME280;45224;50.904;6.038;2023-04-08T06:37:20;100560.66;;;8.27;100.00
59419;BME280;45224;50.904;6.038;2023-04-08T06:38:51;100547.69;;;8.24;100.00
59419;BME280;45224;50.904;6.038;2023-04-08T06:40:21;100559.84;;;8.31;100.00
59419;BME280;45224;50.904;6.038;2023-04-08T06:41:51;100557.06;;;8.20;100.00
59419;BME280;45224;50.904;6.038;2023-04-08T06:43:44;100557.94;;;8.21;100.00
59419;BME280;45224;50.904;6.038;2023-04-08T06:45:14;100563.22;;;8.27;100.00
59419;BME280;45224;50.904;6.038;2023-04-08T06:46:45;100560.75;;;8.32;100.00
59419;BME280;45224;50.904;6.038;2023-04-08T06:48:15;100562.53;;;8.36;100.00
59419;BME280;45224;50.904;6.038;2023-04-08T06:49:46;100560.69;;;8.29;100.00
59419;BME280;45224;50.904;6.038;2023-04-08T06:51:17;100557.31;;;8.33;100.00
59419;BME280;45224;50.904;6.038;2023-04-08T06:52:48;100567.63;;;8.33;100.00
59419;BME280;45224;50.904;6.038;2023-04-08T06:54:18;100570.16;;;8.31;100.00
59419;BME280;45224;50.904;6.038;2023-04-08T06:55:49;100571.03;;;8.30;100.00
59419;BME280;45224;50.904;6.038;2023-04-08T06:57:19;100565.00;;;8.31;100.00
59419;BME280;45224;50.904;6.038;2023-04-08T06:58:50;100570.69;;;8.16;100.00
59419;BME280;45224;50.904;6.038;2023-04-08T07:00:21;100573.09;;;8.09;100.00
59419;BME280;45224;50.904;6.038;2023-04-08T07:01:51;100562.28;;;8.25;100.00
59419;BME280;45224;50.904;6.038;2023-04-08T07:03:22;100570.78;;;8.19;100.00
59419;BME280;45224;50.904;6.038;2023-04-08T07:04:53;100569.44;;;8.37;100.00
59419;BME280;45224;50.904;6.038;2023-04-08T07:06:23;100555.47;;;8.26;100.00
59419;BME280;45224;50.904;6.038;2023-04-08T07:07:53;100574.53;;;8.34;100.00
59419;BME280;45224;50.904;6.038;2023-04-08T07:09:24;100570.47;;;8.44;100.00
59419;BME280;45224;50.904;6.038;2023-04-08T07:10:54;100565.38;;;8.47;100.00
59419;BME280;45224;50.904;6.038;2023-04-08T07:12:25;100575.69;;;8.47;100.00
59419;BME280;45224;50.904;6.038;2023-04-08T07:13:55;100577.66;;;8.58;100.00
59419;BME280;45224;50.904;6.038;2023-04-08T07:15:26;100586.38;;;8.65;100.00
59419;BME280;45224;50.904;6.038;2023-04-08T07:16:56;100575.19;;;8.65;100.00
59419;BME280;45224;50.904;6.038;2023-04-08T07:18:27;100585.50;;;8.65;100.00
59419;BME280;45224;50.904;6.038;2023-04-08T07:19:58;100582.16;;;8.69;100.00
59419;BME280;45224;50.904;6.038;2023-04-08T07:21:28;100584.03;;;8.76;100.00
59419;BME280;45224;50.904;6.038;2023-04-08T07:23:00;100584.09;;;8.79;100.00
59419;BME280;45224;50.904;6.038;2023-04-08T07:24:30;100585.78;;;8.77;100.00
59419;BME280;45224;50.904;6.038;2023-04-08T07:26:02;100597.63;;;8.69;100.00
59419;BME280;45224;50.904;6.038;2023-04-08T07:27:33;100589.03;;;8.70;100.00
59419;BME280;45224;50.904;6.038;2023-04-08T07:29:04;100593.38;;;8.71;100.00
59419;BME280;45224;50.904;6.038;2023-04-08T07:30:34;100596.16;;;8.82;100.00
59419;BME280;45224;50.904;6.038;2023-04-08T07:32:05;100604.38;;;8.64;100.00
59419;BME280;45224;50.904;6.038;2023-04-08T07:33:36;100602.78;;;8.69;100.00
59419;BME280;45224;50.904;6.038;2023-04-08T07:35:06;100609.72;;;8.73;100.00
59419;BME280;45224;50.904;6.038;2023-04-08T07:36:37;100609.41;;;8.56;100.00
59419;BME280;45224;50.904;6.038;2023-04-08T07:38:07;100605.75;;;8.46;100.00
59419;BME280;45224;50.904;6.038;2023-04-08T07:39:40;100610.47;;;8.28;100.00
59419;BME280;45224;50.904;6.038;2023-04-08T07:41:11;100607.69;;;8.20;100.00
59419;BME280;45224;50.904;6.038;2023-04-08T07:42:41;100616.50;;;8.30;100.00
59419;BME280;45224;50.904;6.038;2023-04-08T07:44:12;100613.34;;;8.41;100.00
59419;BME280;45224;50.904;6.038;2023-04-08T07:45:46;100607.44;;;8.46;100.00
59419;BME280;45224;50.904;6.038;2023-04-08T07:47:16;100620.03;;;8.33;100.00
59419;BME280;45224;50.904;6.038;2023-04-08T07:48:47;100615.38;;;8.18;100.00
59419;BME280;45224;50.904;6.038;2023-04-08T07:50:17;100620.03;;;8.33;100.00
59419;BME280;45224;50.904;6.038;2023-04-08T07:51:48;100621.09;;;8.41;100.00
59419;BME280;45224;50.904;6.038;2023-04-08T07:53:18;100618.53;;;8.05;100.00
59419;BME280;45224;50.904;6.038;2023-04-08T07:54:48;100621.53;;;8.25;100.00
59419;BME280;45224;50.904;6.038;2023-04-08T07:56:19;100626.13;;;8.37;100.00
59419;BME280;45224;50.904;6.038;2023-04-08T07:57:50;100628.38;;;8.23;100.00
59419;BME280;45224;50.904;6.038;2023-04-08T07:59:21;100626.06;;;8.34;100.00
59419;BME280;45224;50.904;6.038;2023-04-08T08:00:52;100633.72;;;8.31;100.00
59419;BME280;45224;50.904;6.038;2023-04-08T08:02:22;100633.31;;;8.12;100.00
59419;BME280;45224;50.904;6.038;2023-04-08T08:03:53;100631.00;;;8.25;100.00
59419;BME280;45224;50.904;6.038;2023-04-08T08:05:23;100628.44;;;8.26;100.00